sensor_id;sensor_type;location;lat;lon;timestamp;P1;durP1;ratioP1;P2;durP2;ratioP2
6850;SDS011;3464;42.728;23.296;2023-04-01T00:01:12;35.73;;;18.57;;
6850;SDS011;3464;42.728;23.296;2023-04-01T00:03:39;37.57;;;18.50;;
6850;SDS011;3464;42.728;23.296;2023-04-01T00:06:07;37.50;;;18.07;;
6850;SDS011;3464;42.728;23.296;2023-04-01T00:08:36;37.70;;;18.67;;
6850;SDS011;3464;42.728;23.296;2023-04-01T00:11:03;37.33;;;18.00;;
6850;SDS011;3464;42.728;23.296;2023-04-01T00:13:30;35.80;;;18.80;;
6850;SDS011;3464;42.728;23.296;2023-04-01T00:15:57;40.47;;;17.50;;
6850;SDS011;3464;42.728;23.296;2023-04-01T00:18:25;35.67;;;16.90;;
6850;SDS011;3464;42.728;23.296;2023-04-01T00:20:55;39.83;;;16.80;;
6850;SDS011;3464;42.728;23.296;2023-04-01T00:23:22;34.00;;;16.23;;
6850;SDS011;3464;42.728;23.296;2023-04-01T00:25:49;32.10;;;15.53;;
6850;SDS011;3464;42.728;23.296;2023-04-01T00:28:16;34.13;;;16.70;;
6850;SDS011;3464;42.728;23.296;2023-04-01T00:30:44;35.73;;;16.33;;
6850;SDS011;3464;42.728;23.296;2023-04-01T00:33:11;31.70;;;14.83;;
6850;SDS011;3464;42.728;23.296;2023-04-01T00:35:39;28.50;;;14.53;;
6850;SDS011;3464;42.728;23.296;2023-04-01T00:38:07;29.77;;;14.43;;
6850;SDS011;3464;42.728;23.296;2023-04-01T00:40:34;30.20;;;14.37;;
6850;SDS011;3464;42.728;23.296;2023-04-01T00:43:01;30.57;;;13.87;;
6850;SDS011;3464;42.728;23.296;2023-04-01T00:45:30;28.77;;;14.53;;
6850;SDS011;3464;42.728;23.296;2023-04-01T00:47:56;34.40;;;13.67;;
6850;SDS011;3464;42.728;23.296;2023-04-01T00:50:22;30.70;;;12.90;;
6850;SDS011;3464;42.728;23.296;2023-04-01T00:52:50;33.87;;;14.60;;
6850;SDS011;3464;42.728;23.296;2023-04-01T00:55:18;32.23;;;16.23;;
6850;SDS011;3464;42.728;23.296;2023-04-01T00:57:47;31.17;;;14.70;;
6850;SDS011;3464;42.728;23.296;2023-04-01T01:00:16;30.83;;;13.80;;
6850;SDS011;3464;42.728;23.296;2023-04-01T01:02:49;33.30;;;15.13;;
6850;SDS011;3464;42.728;23.296;2023-04-01T01:05:20;36.33;;;14.60;;
6850;SDS011;3464;42.728;23.296;2023-04-01T01:07:57;30.13;;;13.77;;
6850;SDS011;3464;42.728;23.296;2023-04-01T01:10:31;29.87;;;14.33;;
6850;SDS011;3464;42.728;23.296;2023-04-01T01:13:04;29.27;;;13.43;;
6850;SDS011;3464;42.728;23.296;2023-04-01T01:15:56;27.93;;;13.23;;
6850;SDS011;3464;42.728;23.296;2023-04-01T01:18:30;37.80;;;14.40;;
6850;SDS011;3464;42.728;23.296;2023-04-01T01:21:04;25.20;;;12.23;;
6850;SDS011;3464;42.728;23.296;2023-04-01T01:23:51;26.23;;;13.00;;
6850;SDS011;3464;42.728;23.296;2023-04-01T01:26:24;29.40;;;13.50;;
6850;SDS011;3464;42.728;23.296;2023-04-01T01:29:07;27.40;;;12.60;;
6850;SDS011;3464;42.728;23.296;2023-04-01T01:31:36;28.53;;;12.90;;
6850;SDS011;3464;42.728;23.296;2023-04-01T01:34:22;25.57;;;12.87;;
6850;SDS011;3464;42.728;23.296;2023-04-01T01:37:05;27.57;;;12.70;;
6850;SDS011;3464;42.728;23.296;2023-04-01T01:39:30;33.73;;;12.30;;
6850;SDS011;3464;42.728;23.296;2023-04-01T01:41:57;30.90;;;12.57;;
6850;SDS011;3464;42.728;23.296;2023-04-01T01:44:24;31.87;;;13.70;;
6850;SDS011;3464;42.728;23.296;2023-04-01T01:46:51;29.87;;;12.33;;
6850;SDS011;3464;42.728;23.296;2023-04-01T01:49:18;26.30;;;12.20;;
6850;SDS011;3464;42.728;23.296;2023-04-01T01:51:45;26.97;;;13.13;;
6850;SDS011;3464;42.728;23.296;2023-04-01T01:54:14;32.30;;;12.90;;
6850;SDS011;3464;42.728;23.296;2023-04-01T01:56:41;33.60;;;12.70;;
6850;SDS011;3464;42.728;23.296;2023-04-01T01:59:10;29.10;;;13.30;;
6850;SDS011;3464;42.728;23.296;2023-04-01T02:01:39;28.57;;;12.90;;
6850;SDS011;3464;42.728;23.296;2023-04-01T02:04:06;32.10;;;12.40;;
6850;SDS011;3464;42.728;23.296;2023-04-01T02:06:34;28.63;;;12.20;;
6850;SDS011;3464;42.728;23.296;2023-04-01T02:09:00;34.10;;;13.80;;
6850;SDS011;3464;42.728;23.296;2023-04-01T02:14:15;30.30;;;13.20;;
6850;SDS011;3464;42.728;23.296;2023-04-01T02:17:14;27.97;;;12.50;;
6850;SDS011;3464;42.728;23.296;2023-04-01T02:19:25;26.00;;;13.03;;
6850;SDS011;3464;42.728;23.296;2023-04-01T02:21:56;37.90;;;14.00;;
6850;SDS011;3464;42.728;23.296;2023-04-01T02:24:23;33.07;;;16.27;;
6850;SDS011;3464;42.728;23.296;2023-04-01T02:26:52;25.30;;;13.13;;
6850;SDS011;3464;42.728;23.296;2023-04-01T02:29:22;31.97;;;13.60;;
6850;SDS011;3464;42.728;23.296;2023-04-01T02:31:56;36.87;;;14.27;;
6850;SDS011;3464;42.728;23.296;2023-04-01T02:40:28;28.30;;;13.83;;
6850;SDS011;3464;42.728;23.296;2023-04-01T02:42:57;27.37;;;13.70;;
6850;SDS011;3464;42.728;23.296;2023-04-01T02:45:28;27.50;;;13.63;;
6850;SDS011;3464;42.728;23.296;2023-04-01T02:48:07;33.67;;;13.97;;
6850;SDS011;3464;42.728;23.296;2023-04-01T02:50:55;26.60;;;12.60;;
6850;SDS011;3464;42.728;23.296;2023-04-01T02:53:25;31.00;;;13.13;;
6850;SDS011;3464;42.728;23.296;2023-04-01T02:55:54;34.50;;;14.73;;
6850;SDS011;3464;42.728;23.296;2023-04-01T02:58:22;34.43;;;14.67;;
6850;SDS011;3464;42.728;23.296;2023-04-01T03:00:49;27.93;;;12.57;;
6850;SDS011;3464;42.728;23.296;2023-04-01T03:03:15;30.50;;;13.80;;
6850;SDS011;3464;42.728;23.296;2023-04-01T03:05:42;33.07;;;14.70;;
6850;SDS011;3464;42.728;23.296;2023-04-01T03:08:10;27.70;;;12.47;;
6850;SDS011;3464;42.728;23.296;2023-04-01T03:10:40;27.17;;;12.50;;
6850;SDS011;3464;42.728;23.296;2023-04-01T03:13:08;28.00;;;11.57;;
6850;SDS011;3464;42.728;23.296;2023-04-01T03:15:35;29.53;;;11.37;;
6850;SDS011;3464;42.728;23.296;2023-04-01T03:18:04;25.00;;;12.63;;
6850;SDS011;3464;42.728;23.296;2023-04-01T03:20:31;30.10;;;13.83;;
6850;SDS011;3464;42.728;23.296;2023-04-01T03:23:01;30.77;;;14.20;;
6850;SDS011;3464;42.728;23.296;2023-04-01T03:25:28;28.17;;;12.87;;
6850;SDS011;3464;42.728;23.296;2023-04-01T03:27:56;29.40;;;13.00;;
6850;SDS011;3464;42.728;23.296;2023-04-01T03:30:22;30.60;;;12.20;;
6850;SDS011;3464;42.728;23.296;2023-04-01T03:32:49;28.97;;;12.20;;
6850;SDS011;3464;42.728;23.296;2023-04-01T03:35:19;29.40;;;12.27;;
6850;SDS011;3464;42.728;23.296;2023-04-01T03:37:47;27.87;;;11.87;;
6850;SDS011;3464;42.728;23.296;2023-04-01T03:40:14;30.67;;;12.33;;
6850;SDS011;3464;42.728;23.296;2023-04-01T03:42:41;24.30;;;12.30;;
6850;SDS011;3464;42.728;23.296;2023-04-01T03:45:09;27.30;;;12.47;;
6850;SDS011;3464;42.728;23.296;2023-04-01T03:47:37;28.03;;;12.87;;
6850;SDS011;3464;42.728;23.296;2023-04-01T03:50:09;33.70;;;16.27;;
6850;SDS011;3464;42.728;23.296;2023-04-01T03:52:37;27.07;;;12.07;;
6850;SDS011;3464;42.728;23.296;2023-04-01T03:55:04;27.53;;;10.90;;
6850;SDS011;3464;42.728;23.296;2023-04-01T03:57:32;25.27;;;11.63;;
6850;SDS011;3464;42.728;23.296;2023-04-01T04:00:00;25.87;;;11.50;;
6850;SDS011;3464;42.728;23.296;2023-04-01T04:02:27;27.83;;;10.87;;
6850;SDS011;3464;42.728;23.296;2023-04-01T04:04:53;26.87;;;12.00;;
6850;SDS011;3464;42.728;23.296;2023-04-01T04:07:20;25.43;;;9.70;;
6850;SDS011;3464;42.728;23.296;2023-04-01T04:09:48;20.83;;;9.60;;
6850;SDS011;3464;42.728;23.296;2023-04-01T04:12:14;23.70;;;9.13;;
6850;SDS011;3464;42.728;23.296;2023-04-01T04:20:06;21.83;;;10.17;;
6850;SDS011;3464;42.728;23.296;2023-04-01T04:22:34;22.57;;;9.70;;
6850;SDS011;3464;42.728;23.296;2023-04-01T04:25:01;23.13;;;8.80;;
6850;SDS011;3464;42.728;23.296;2023-04-01T04:27:28;24.30;;;9.27;;
6850;SDS011;3464;42.728;23.296;2023-04-01T04:29:55;25.30;;;9.87;;
6850;SDS011;3464;42.728;23.296;2023-04-01T04:32:22;28.73;;;10.00;;
6850;SDS011;3464;42.728;23.296;2023-04-01T04:34:48;25.97;;;10.17;;
6850;SDS011;3464;42.728;23.296;2023-04-01T04:37:16;22.10;;;9.50;;
6850;SDS011;3464;42.728;23.296;2023-04-01T04:39:45;26.27;;;11.07;;
6850;SDS011;3464;42.728;23.296;2023-04-01T04:42:12;24.00;;;11.03;;
6850;SDS011;3464;42.728;23.296;2023-04-01T04:44:39;22.77;;;10.60;;
6850;SDS011;3464;42.728;23.296;2023-04-01T04:47:06;25.43;;;10.90;;
6850;SDS011;3464;42.728;23.296;2023-04-01T04:49:33;33.10;;;12.17;;
6850;SDS011;3464;42.728;23.296;2023-04-01T04:52:00;26.30;;;10.90;;
6850;SDS011;3464;42.728;23.296;2023-04-01T04:54:28;31.53;;;11.00;;
6850;SDS011;3464;42.728;23.296;2023-04-01T04:56:55;30.13;;;11.70;;
6850;SDS011;3464;42.728;23.296;2023-04-01T04:59:22;25.50;;;10.67;;
6850;SDS011;3464;42.728;23.296;2023-04-01T05:01:49;22.10;;;9.10;;
6850;SDS011;3464;42.728;23.296;2023-04-01T05:04:15;27.20;;;13.17;;
6850;SDS011;3464;42.728;23.296;2023-04-01T05:06:43;32.63;;;13.60;;
6850;SDS011;3464;42.728;23.296;2023-04-01T05:09:11;33.00;;;13.60;;
6850;SDS011;3464;42.728;23.296;2023-04-01T05:11:38;23.23;;;10.33;;
6850;SDS011;3464;42.728;23.296;2023-04-01T05:14:06;25.87;;;9.80;;
6850;SDS011;3464;42.728;23.296;2023-04-01T05:16:33;31.97;;;9.73;;
6850;SDS011;3464;42.728;23.296;2023-04-01T05:19:02;22.53;;;10.43;;
6850;SDS011;3464;42.728;23.296;2023-04-01T05:21:29;29.80;;;10.57;;
6850;SDS011;3464;42.728;23.296;2023-04-01T05:23:56;29.30;;;10.20;;
6850;SDS011;3464;42.728;23.296;2023-04-01T05:26:23;23.53;;;9.80;;
6850;SDS011;3464;42.728;23.296;2023-04-01T05:28:50;27.40;;;9.77;;
6850;SDS011;3464;42.728;23.296;2023-04-01T05:31:19;26.43;;;9.50;;
6850;SDS011;3464;42.728;23.296;2023-04-01T05:33:45;28.07;;;10.67;;
6850;SDS011;3464;42.728;23.296;2023-04-01T05:36:14;23.87;;;9.60;;
6850;SDS011;3464;42.728;23.296;2023-04-01T05:38:41;26.87;;;9.00;;
6850;SDS011;3464;42.728;23.296;2023-04-01T05:41:08;28.70;;;9.80;;
6850;SDS011;3464;42.728;23.296;2023-04-01T05:43:37;26.13;;;9.37;;
6850;SDS011;3464;42.728;23.296;2023-04-01T05:46:04;26.27;;;10.20;;
6850;SDS011;3464;42.728;23.296;2023-04-01T05:48:32;23.67;;;9.73;;
6850;SDS011;3464;42.728;23.296;2023-04-01T05:51:02;25.83;;;10.07;;
6850;SDS011;3464;42.728;23.296;2023-04-01T05:53:28;30.80;;;11.77;;
6850;SDS011;3464;42.728;23.296;2023-04-01T05:56:01;30.83;;;10.77;;
6850;SDS011;3464;42.728;23.296;2023-04-01T05:58:41;26.97;;;9.10;;
6850;SDS011;3464;42.728;23.296;2023-04-01T06:01:08;25.17;;;9.90;;
6850;SDS011;3464;42.728;23.296;2023-04-01T06:03:36;25.47;;;9.20;;
6850;SDS011;3464;42.728;23.296;2023-04-01T06:06:03;26.70;;;8.97;;
6850;SDS011;3464;42.728;23.296;2023-04-01T06:08:30;20.73;;;8.07;;
6850;SDS011;3464;42.728;23.296;2023-04-01T06:11:01;25.03;;;7.70;;
6850;SDS011;3464;42.728;23.296;2023-04-01T06:13:48;20.30;;;7.20;;
6850;SDS011;3464;42.728;23.296;2023-04-01T06:16:32;21.70;;;7.57;;
6850;SDS011;3464;42.728;23.296;2023-04-01T06:19:32;19.10;;;7.13;;
6850;SDS011;3464;42.728;23.296;2023-04-01T06:22:03;20.23;;;7.40;;
6850;SDS011;3464;42.728;23.296;2023-04-01T06:24:46;28.03;;;7.93;;
6850;SDS011;3464;42.728;23.296;2023-04-01T06:27:31;24.73;;;7.60;;
6850;SDS011;3464;42.728;23.296;2023-04-01T06:30:34;21.83;;;8.03;;
6850;SDS011;3464;42.728;23.296;2023-04-01T06:33:01;22.83;;;8.90;;
6850;SDS011;3464;42.728;23.296;2023-04-01T06:35:40;28.43;;;8.80;;
6850;SDS011;3464;42.728;23.296;2023-04-01T06:38:13;29.40;;;9.90;;
6850;SDS011;3464;42.728;23.296;2023-04-01T06:40:55;22.97;;;9.20;;
6850;SDS011;3464;42.728;23.296;2023-04-01T06:43:36;19.93;;;7.60;;
6850;SDS011;3464;42.728;23.296;2023-04-01T06:46:30;22.17;;;7.63;;
6850;SDS011;3464;42.728;23.296;2023-04-01T06:49:02;20.20;;;7.40;;
6850;SDS011;3464;42.728;23.296;2023-04-01T06:54:09;21.90;;;6.67;;
6850;SDS011;3464;42.728;23.296;2023-04-01T06:56:39;23.43;;;6.50;;
6850;SDS011;3464;42.728;23.296;2023-04-01T06:59:12;25.63;;;6.33;;
6850;SDS011;3464;42.728;23.296;2023-04-01T07:01:42;22.27;;;6.10;;
6850;SDS011;3464;42.728;23.296;2023-04-01T07:04:13;23.17;;;6.40;;
6850;SDS011;3464;42.728;23.296;2023-04-01T07:06:39;19.87;;;6.30;;
6850;SDS011;3464;42.728;23.296;2023-04-01T07:09:06;17.67;;;6.37;;
6850;SDS011;3464;42.728;23.296;2023-04-01T07:11:34;18.87;;;5.03;;
6850;SDS011;3464;42.728;23.296;2023-04-01T07:14:17;15.23;;;5.80;;
6850;SDS011;3464;42.728;23.296;2023-04-01T07:16:54;19.53;;;6.13;;
6850;SDS011;3464;42.728;23.296;2023-04-01T07:22:28;21.30;;;6.00;;
6850;SDS011;3464;42.728;23.296;2023-04-01T07:24:56;19.17;;;6.03;;
6850;SDS011;3464;42.728;23.296;2023-04-01T07:27:30;22.50;;;6.00;;
6850;SDS011;3464;42.728;23.296;2023-04-01T07:32:38;18.93;;;6.50;;
6850;SDS011;3464;42.728;23.296;2023-04-01T07:35:09;24.70;;;7.43;;
6850;SDS011;3464;42.728;23.296;2023-04-01T07:40:20;19.60;;;6.50;;
6850;SDS011;3464;42.728;23.296;2023-04-01T07:43:15;19.40;;;6.90;;
6850;SDS011;3464;42.728;23.296;2023-04-01T07:48:50;18.23;;;6.10;;
6850;SDS011;3464;42.728;23.296;2023-04-01T07:51:21;16.80;;;5.70;;
6850;SDS011;3464;42.728;23.296;2023-04-01T07:56:45;19.87;;;6.10;;
6850;SDS011;3464;42.728;23.296;2023-04-01T07:59:24;23.50;;;6.43;;
6850;SDS011;3464;42.728;23.296;2023-04-01T08:01:50;22.20;;;6.00;;
6850;SDS011;3464;42.728;23.296;2023-04-01T08:04:36;25.00;;;6.30;;
6850;SDS011;3464;42.728;23.296;2023-04-01T08:07:08;23.13;;;5.90;;
6850;SDS011;3464;42.728;23.296;2023-04-01T08:12:29;23.40;;;6.47;;
6850;SDS011;3464;42.728;23.296;2023-04-01T08:15:03;16.40;;;5.37;;
6850;SDS011;3464;42.728;23.296;2023-04-01T08:20:30;16.50;;;4.87;;
6850;SDS011;3464;42.728;23.296;2023-04-01T08:23:06;17.23;;;5.77;;
6850;SDS011;3464;42.728;23.296;2023-04-01T08:25:32;16.10;;;4.80;;
6850;SDS011;3464;42.728;23.296;2023-04-01T08:28:03;15.40;;;5.37;;
6850;SDS011;3464;42.728;23.296;2023-04-01T08:30:36;22.13;;;5.40;;
6850;SDS011;3464;42.728;23.296;2023-04-01T08:33:10;20.00;;;5.33;;
6850;SDS011;3464;42.728;23.296;2023-04-01T08:36:05;18.40;;;4.67;;
6850;SDS011;3464;42.728;23.296;2023-04-01T08:41:48;17.83;;;5.60;;
6850;SDS011;3464;42.728;23.296;2023-04-01T08:55:38;15.30;;;4.30;;
6850;SDS011;3464;42.728;23.296;2023-04-01T09:00:54;15.43;;;5.50;;
6850;SDS011;3464;42.728;23.296;2023-04-01T09:06:20;15.63;;;4.23;;
6850;SDS011;3464;42.728;23.296;2023-04-01T09:09:02;20.10;;;4.43;;
6850;SDS011;3464;42.728;23.296;2023-04-01T09:14:16;16.57;;;4.20;;
6850;SDS011;3464;42.728;23.296;2023-04-01T09:16:49;18.37;;;4.20;;
6850;SDS011;3464;42.728;23.296;2023-04-01T09:19:23;18.20;;;3.70;;
6850;SDS011;3464;42.728;23.296;2023-04-01T09:22:03;14.83;;;3.50;;
6850;SDS011;3464;42.728;23.296;2023-04-01T09:27:10;13.80;;;3.47;;
6850;SDS011;3464;42.728;23.296;2023-04-01T09:30:06;16.63;;;4.30;;
6850;SDS011;3464;42.728;23.296;2023-04-01T09:33:17;17.90;;;4.27;;
6850;SDS011;3464;42.728;23.296;2023-04-01T09:35:58;15.93;;;3.73;;
6850;SDS011;3464;42.728;23.296;2023-04-01T09:38:22;16.70;;;4.20;;
6850;SDS011;3464;42.728;23.296;2023-04-01T09:40:54;19.43;;;3.97;;
6850;SDS011;3464;42.728;23.296;2023-04-01T09:45:53;21.03;;;3.90;;
6850;SDS011;3464;42.728;23.296;2023-04-01T09:51:26;14.67;;;4.13;;
6850;SDS011;3464;42.728;23.296;2023-04-01T09:54:11;15.90;;;4.70;;
6850;SDS011;3464;42.728;23.296;2023-04-01T09:57:02;16.93;;;3.70;;
6850;SDS011;3464;42.728;23.296;2023-04-01T09:59:35;12.80;;;3.63;;
6850;SDS011;3464;42.728;23.296;2023-04-01T10:02:20;18.30;;;4.20;;
6850;SDS011;3464;42.728;23.296;2023-04-01T10:05:57;14.57;;;3.97;;
6850;SDS011;3464;42.728;23.296;2023-04-01T10:13:33;20.57;;;5.50;;
6850;SDS011;3464;42.728;23.296;2023-04-01T10:21:47;15.17;;;3.40;;
6850;SDS011;3464;42.728;23.296;2023-04-01T10:24:45;15.93;;;4.50;;
6850;SDS011;3464;42.728;23.296;2023-04-01T10:27:33;18.63;;;4.20;;
6850;SDS011;3464;42.728;23.296;2023-04-01T10:30:05;19.63;;;4.90;;
6850;SDS011;3464;42.728;23.296;2023-04-01T10:33:30;18.67;;;4.50;;
6850;SDS011;3464;42.728;23.296;2023-04-01T10:36:52;18.23;;;4.07;;
6850;SDS011;3464;42.728;23.296;2023-04-01T10:38:47;19.80;;;4.73;;
6850;SDS011;3464;42.728;23.296;2023-04-01T10:47:20;20.30;;;4.30;;
6850;SDS011;3464;42.728;23.296;2023-04-01T11:06:30;20.40;;;4.83;;
6850;SDS011;3464;42.728;23.296;2023-04-01T11:09:24;15.80;;;4.30;;
6850;SDS011;3464;42.728;23.296;2023-04-01T11:17:34;16.10;;;4.67;;
6850;SDS011;3464;42.728;23.296;2023-04-01T11:20:24;26.23;;;9.53;;
6850;SDS011;3464;42.728;23.296;2023-04-01T11:23:19;16.03;;;4.13;;
6850;SDS011;3464;42.728;23.296;2023-04-01T11:25:56;23.33;;;5.90;;
6850;SDS011;3464;42.728;23.296;2023-04-01T11:34:35;16.33;;;4.30;;
6850;SDS011;3464;42.728;23.296;2023-04-01T11:39:59;19.73;;;6.00;;
6850;SDS011;3464;42.728;23.296;2023-04-01T11:42:31;21.70;;;4.03;;
6850;SDS011;3464;42.728;23.296;2023-04-01T11:45:29;15.27;;;3.87;;
6850;SDS011;3464;42.728;23.296;2023-04-01T11:48:25;18.87;;;3.73;;
6850;SDS011;3464;42.728;23.296;2023-04-01T11:57:14;13.07;;;3.00;;
6850;SDS011;3464;42.728;23.296;2023-04-01T12:16:36;17.53;;;4.00;;
6850;SDS011;3464;42.728;23.296;2023-04-01T12:44:15;14.37;;;4.17;;
6850;SDS011;3464;42.728;23.296;2023-04-01T12:47:16;12.43;;;4.27;;
6850;SDS011;3464;42.728;23.296;2023-04-01T12:52:39;13.77;;;3.90;;
6850;SDS011;3464;42.728;23.296;2023-04-01T12:55:19;12.83;;;3.77;;
6850;SDS011;3464;42.728;23.296;2023-04-01T12:57:53;12.93;;;3.83;;
6850;SDS011;3464;42.728;23.296;2023-04-01T13:00:40;13.50;;;3.87;;
6850;SDS011;3464;42.728;23.296;2023-04-01T13:03:12;14.80;;;4.13;;
6850;SDS011;3464;42.728;23.296;2023-04-01T13:09:07;15.10;;;4.23;;
6850;SDS011;3464;42.728;23.296;2023-04-01T13:11:20;13.57;;;4.17;;
6850;SDS011;3464;42.728;23.296;2023-04-01T13:16:37;15.90;;;4.77;;
6850;SDS011;3464;42.728;23.296;2023-04-01T13:19:05;15.80;;;4.80;;
6850;SDS011;3464;42.728;23.296;2023-04-01T13:21:38;13.43;;;4.10;;
6850;SDS011;3464;42.728;23.296;2023-04-01T13:24:16;13.40;;;3.70;;
6850;SDS011;3464;42.728;23.296;2023-04-01T13:26:51;14.70;;;4.30;;
6850;SDS011;3464;42.728;23.296;2023-04-01T13:29:20;14.70;;;4.07;;
6850;SDS011;3464;42.728;23.296;2023-04-01T13:31:50;16.90;;;4.27;;
6850;SDS011;3464;42.728;23.296;2023-04-01T13:34:26;14.23;;;4.30;;
6850;SDS011;3464;42.728;23.296;2023-04-01T13:37:27;16.63;;;4.97;;
6850;SDS011;3464;42.728;23.296;2023-04-01T13:40:21;16.60;;;5.20;;
6850;SDS011;3464;42.728;23.296;2023-04-01T13:43:04;17.17;;;5.50;;
6850;SDS011;3464;42.728;23.296;2023-04-01T13:45:36;12.80;;;4.47;;
6850;SDS011;3464;42.728;23.296;2023-04-01T13:48:21;11.50;;;3.60;;
6850;SDS011;3464;42.728;23.296;2023-04-01T13:50:53;11.70;;;3.37;;
6850;SDS011;3464;42.728;23.296;2023-04-01T13:53:41;14.23;;;3.23;;
6850;SDS011;3464;42.728;23.296;2023-04-01T13:56:15;12.03;;;3.17;;
6850;SDS011;3464;42.728;23.296;2023-04-01T13:58:57;10.37;;;2.80;;
6850;SDS011;3464;42.728;23.296;2023-04-01T14:01:29;11.27;;;2.60;;
6850;SDS011;3464;42.728;23.296;2023-04-01T14:06:54;12.30;;;2.90;;
6850;SDS011;3464;42.728;23.296;2023-04-01T14:09:29;10.87;;;2.70;;
6850;SDS011;3464;42.728;23.296;2023-04-01T14:14:34;10.37;;;2.70;;
6850;SDS011;3464;42.728;23.296;2023-04-01T14:17:11;14.70;;;2.53;;
6850;SDS011;3464;42.728;23.296;2023-04-01T14:20:00;10.17;;;2.67;;
6850;SDS011;3464;42.728;23.296;2023-04-01T14:22:41;10.00;;;2.40;;
6850;SDS011;3464;42.728;23.296;2023-04-01T14:27:56;16.93;;;4.17;;
6850;SDS011;3464;42.728;23.296;2023-04-01T14:30:38;18.73;;;4.73;;
6850;SDS011;3464;42.728;23.296;2023-04-01T14:34:30;11.57;;;3.53;;
6850;SDS011;3464;42.728;23.296;2023-04-01T14:38:43;16.10;;;4.40;;
6850;SDS011;3464;42.728;23.296;2023-04-01T14:43:52;12.20;;;3.90;;
6850;SDS011;3464;42.728;23.296;2023-04-01T14:49:05;12.47;;;3.93;;
6850;SDS011;3464;42.728;23.296;2023-04-01T14:51:38;12.47;;;3.83;;
6850;SDS011;3464;42.728;23.296;2023-04-01T14:54:09;13.10;;;3.90;;
6850;SDS011;3464;42.728;23.296;2023-04-01T14:56:44;13.17;;;4.00;;
6850;SDS011;3464;42.728;23.296;2023-04-01T14:59:14;14.10;;;4.23;;
6850;SDS011;3464;42.728;23.296;2023-04-01T15:01:46;16.80;;;3.83;;
6850;SDS011;3464;42.728;23.296;2023-04-01T15:04:17;11.50;;;3.60;;
6850;SDS011;3464;42.728;23.296;2023-04-01T15:07:20;13.37;;;3.77;;
6850;SDS011;3464;42.728;23.296;2023-04-01T15:09:51;15.27;;;4.20;;
6850;SDS011;3464;42.728;23.296;2023-04-01T15:12:17;12.77;;;3.73;;
6850;SDS011;3464;42.728;23.296;2023-04-01T15:15:03;13.80;;;3.97;;
6850;SDS011;3464;42.728;23.296;2023-04-01T15:17:58;11.60;;;3.60;;
6850;SDS011;3464;42.728;23.296;2023-04-01T15:20:33;12.73;;;4.50;;
6850;SDS011;3464;42.728;23.296;2023-04-01T15:23:00;14.60;;;4.70;;
6850;SDS011;3464;42.728;23.296;2023-04-01T15:28:08;11.13;;;3.23;;
6850;SDS011;3464;42.728;23.296;2023-04-01T15:30:46;12.73;;;3.83;;
6850;SDS011;3464;42.728;23.296;2023-04-01T15:36:04;12.80;;;3.80;;
6850;SDS011;3464;42.728;23.296;2023-04-01T15:46:49;13.00;;;4.57;;
6850;SDS011;3464;42.728;23.296;2023-04-01T15:49:24;10.37;;;2.70;;
6850;SDS011;3464;42.728;23.296;2023-04-01T15:51:57;9.07;;;2.13;;
6850;SDS011;3464;42.728;23.296;2023-04-01T15:54:38;9.00;;;2.50;;
6850;SDS011;3464;42.728;23.296;2023-04-01T15:59:55;12.67;;;4.13;;
6850;SDS011;3464;42.728;23.296;2023-04-01T16:02:25;15.23;;;4.67;;
6850;SDS011;3464;42.728;23.296;2023-04-01T16:10:44;12.23;;;5.20;;
6850;SDS011;3464;42.728;23.296;2023-04-01T16:13:40;13.80;;;6.43;;
6850;SDS011;3464;42.728;23.296;2023-04-01T16:15:51;12.60;;;5.83;;
6850;SDS011;3464;42.728;23.296;2023-04-01T16:21:08;14.27;;;6.40;;
6850;SDS011;3464;42.728;23.296;2023-04-01T16:23:43;12.70;;;5.80;;
6850;SDS011;3464;42.728;23.296;2023-04-01T16:26:25;12.93;;;5.37;;
6850;SDS011;3464;42.728;23.296;2023-04-01T16:31:46;15.63;;;5.43;;
6850;SDS011;3464;42.728;23.296;2023-04-01T16:34:31;12.43;;;5.17;;
6850;SDS011;3464;42.728;23.296;2023-04-01T16:39:46;13.50;;;4.47;;
6850;SDS011;3464;42.728;23.296;2023-04-01T16:42:17;11.60;;;4.10;;
6850;SDS011;3464;42.728;23.296;2023-04-01T16:44:52;11.00;;;4.70;;
6850;SDS011;3464;42.728;23.296;2023-04-01T16:47:30;9.30;;;3.20;;
6850;SDS011;3464;42.728;23.296;2023-04-01T16:49:59;9.40;;;3.40;;
6850;SDS011;3464;42.728;23.296;2023-04-01T16:52:47;8.47;;;2.77;;
6850;SDS011;3464;42.728;23.296;2023-04-01T16:55:33;8.57;;;2.80;;
6850;SDS011;3464;42.728;23.296;2023-04-01T16:57:55;9.67;;;2.67;;
6850;SDS011;3464;42.728;23.296;2023-04-01T17:00:26;8.73;;;2.60;;
6850;SDS011;3464;42.728;23.296;2023-04-01T17:03:11;8.70;;;2.70;;
6850;SDS011;3464;42.728;23.296;2023-04-01T17:08:15;8.60;;;2.80;;
6850;SDS011;3464;42.728;23.296;2023-04-01T17:10:54;10.30;;;3.43;;
6850;SDS011;3464;42.728;23.296;2023-04-01T17:13:38;9.73;;;3.30;;
6850;SDS011;3464;42.728;23.296;2023-04-01T17:16:19;9.60;;;3.40;;
6850;SDS011;3464;42.728;23.296;2023-04-01T17:18:47;9.90;;;2.93;;
6850;SDS011;3464;42.728;23.296;2023-04-01T17:21:15;9.00;;;3.00;;
6850;SDS011;3464;42.728;23.296;2023-04-01T17:23:51;11.70;;;4.50;;
6850;SDS011;3464;42.728;23.296;2023-04-01T17:26:20;11.17;;;4.30;;
6850;SDS011;3464;42.728;23.296;2023-04-01T17:29:05;12.00;;;4.47;;
6850;SDS011;3464;42.728;23.296;2023-04-01T17:31:50;9.80;;;3.80;;
6850;SDS011;3464;42.728;23.296;2023-04-01T17:34:21;8.47;;;2.60;;
6850;SDS011;3464;42.728;23.296;2023-04-01T17:36:56;8.10;;;2.67;;
6850;SDS011;3464;42.728;23.296;2023-04-01T17:42:16;9.00;;;3.10;;
6850;SDS011;3464;42.728;23.296;2023-04-01T17:47:36;9.43;;;3.67;;
6850;SDS011;3464;42.728;23.296;2023-04-01T17:55:32;8.60;;;3.60;;
6850;SDS011;3464;42.728;23.296;2023-04-01T17:58:11;8.70;;;3.50;;
6850;SDS011;3464;42.728;23.296;2023-04-01T18:06:19;8.83;;;3.73;;
6850;SDS011;3464;42.728;23.296;2023-04-01T18:08:50;10.10;;;4.40;;
6850;SDS011;3464;42.728;23.296;2023-04-01T18:11:22;11.30;;;5.40;;
6850;SDS011;3464;42.728;23.296;2023-04-01T18:19:15;12.93;;;5.80;;
6850;SDS011;3464;42.728;23.296;2023-04-01T18:21:47;9.90;;;3.73;;
6850;SDS011;3464;42.728;23.296;2023-04-01T18:24:16;9.03;;;3.80;;
6850;SDS011;3464;42.728;23.296;2023-04-01T18:26:44;12.00;;;3.83;;
6850;SDS011;3464;42.728;23.296;2023-04-01T18:29:12;10.13;;;4.50;;
6850;SDS011;3464;42.728;23.296;2023-04-01T18:31:42;9.50;;;4.00;;
6850;SDS011;3464;42.728;23.296;2023-04-01T18:34:16;9.60;;;4.20;;
6850;SDS011;3464;42.728;23.296;2023-04-01T18:36:46;9.60;;;4.10;;
6850;SDS011;3464;42.728;23.296;2023-04-01T18:39:16;9.40;;;4.13;;
6850;SDS011;3464;42.728;23.296;2023-04-01T18:42:03;10.20;;;4.57;;
6850;SDS011;3464;42.728;23.296;2023-04-01T18:44:34;9.50;;;3.70;;
6850;SDS011;3464;42.728;23.296;2023-04-01T18:49:59;10.10;;;4.40;;
6850;SDS011;3464;42.728;23.296;2023-04-01T18:52:34;9.10;;;3.67;;
6850;SDS011;3464;42.728;23.296;2023-04-01T18:55:39;9.80;;;4.07;;
6850;SDS011;3464;42.728;23.296;2023-04-01T18:57:58;9.07;;;3.80;;
6850;SDS011;3464;42.728;23.296;2023-04-01T19:00:32;9.37;;;3.80;;
6850;SDS011;3464;42.728;23.296;2023-04-01T19:08:44;9.30;;;3.50;;
6850;SDS011;3464;42.728;23.296;2023-04-01T19:21:10;12.53;;;4.33;;
6850;SDS011;3464;42.728;23.296;2023-04-01T19:27:25;9.87;;;4.37;;
6850;SDS011;3464;42.728;23.296;2023-04-01T19:30:00;9.17;;;3.50;;
6850;SDS011;3464;42.728;23.296;2023-04-01T19:32:51;8.60;;;3.07;;
6850;SDS011;3464;42.728;23.296;2023-04-01T20:10:45;9.70;;;3.20;;
6850;SDS011;3464;42.728;23.296;2023-04-01T20:13:15;9.93;;;3.23;;
6850;SDS011;3464;42.728;23.296;2023-04-01T20:15:40;9.40;;;2.93;;
6850;SDS011;3464;42.728;23.296;2023-04-01T20:20:51;8.57;;;2.43;;
6850;SDS011;3464;42.728;23.296;2023-04-01T20:26:01;8.80;;;2.73;;
6850;SDS011;3464;42.728;23.296;2023-04-01T20:28:29;8.17;;;2.50;;
6850;SDS011;3464;42.728;23.296;2023-04-01T20:31:01;8.00;;;2.40;;